Time;durP1;ratioP1;P1;durP2;ratioP2;P2;SDS_P1;SDS_P2;PMS_P1;PMS_P2;Temp;Humidity;BMP_temperature;BMP_pressure;BME280_temperature;BME280_humidity;BME280_pressure;Samples;Min_cycle;Max_cycle;Signal;HPM_P1;HPM_P2
2023/11/29 00:01:07;;;;;;;1999.90;999.90;;;;;;;;;;5059155;28;20052;-85
2023/11/29 00:03:34;;;;;;;1999.90;999.90;;;;;;;;;;5055211;28;20408;-86
2023/11/29 00:06:02;;;;;;;1999.90;999.90;;;;;;;;;;5061562;28;20048;-86
2023/11/29 00:08:29;;;;;;;1999.90;999.90;;;;;;;;;;5057205;28;20045;-86
2023/11/29 00:10:57;;;;;;;1999.90;999.90;;;;;;;;;;5059471;28;20426;-85
2023/11/29 00:13:23;;;;;;;1999.90;999.90;;;;;;;;;;5059277;28;20413;-86
2023/11/29 00:15:50;;;;;;;1999.90;999.90;;;;;;;;;;5057263;28;20055;-86
2023/11/29 00:18:17;;;;;;;1999.90;999.90;;;;;;;;;;5061887;28;20057;-86
2023/11/29 00:20:44;;;;;;;1999.90;999.90;;;;;;;;;;5057044;28;20056;-85
2023/11/29 00:23:10;;;;;;;1999.90;999.90;;;;;;;;;;5062170;28;20045;-85
2023/11/29 00:25:37;;;;;;;1999.90;999.90;;;;;;;;;;5057829;28;20044;-86
2023/11/29 00:28:05;;;;;;;1999.90;999.90;;;;;;;;;;5062717;28;20067;-86
2023/11/29 00:30:32;;;;;;;1999.90;999.90;;;;;;;;;;5058264;28;20080;-86
2023/11/29 00:32:58;;;;;;;1999.90;999.90;;;;;;;;;;5061080;28;20044;-86
2023/11/29 00:35:25;;;;;;;1999.90;999.90;;;;;;;;;;5060899;28;20135;-86
2023/11/29 00:37:51;;;;;;;1999.90;999.90;;;;;;;;;;5060527;28;20045;-85
2023/11/29 00:40:18;;;;;;;1999.90;999.90;;;;;;;;;;5058398;28;20049;-86
2023/11/29 00:42:44;;;;;;;1999.90;999.90;;;;;;;;;;5058873;28;20049;-86
2023/11/29 00:45:12;;;;;;;1999.90;999.90;;;;;;;;;;5058275;28;20055;-86
2023/11/29 00:47:39;;;;;;;1999.90;999.90;;;;;;;;;;5059585;28;20052;-86
2023/11/29 00:50:06;;;;;;;1999.90;999.90;;;;;;;;;;5059439;28;20615;-85
2023/11/29 00:52:33;;;;;;;1999.90;999.90;;;;;;;;;;5059023;28;20053;-86
2023/11/29 00:55:00;;;;;;;1999.90;999.90;;;;;;;;;;5059555;28;20048;-85
2023/11/29 00:57:26;;;;;;;1999.90;999.90;;;;;;;;;;5054521;28;20045;-85
2023/11/29 00:59:53;;;;;;;1999.90;999.90;;;;;;;;;;5060656;28;20055;-85
2023/11/29 01:02:22;;;;;;;1999.90;999.90;;;;;;;;;;5052745;28;20045;-86
2023/11/29 01:04:48;;;;;;;1999.90;999.90;;;;;;;;;;5058566;28;20066;-85
2023/11/29 01:07:15;;;;;;;1999.90;999.90;;;;;;;;;;5057672;28;20100;-85
2023/11/29 01:09:42;;;;;;;1999.90;999.90;;;;;;;;;;5057994;28;20064;-85
2023/11/29 01:12:08;;;;;;;1999.90;999.90;;;;;;;;;;5059077;28;20075;-86
2023/11/29 01:14:35;;;;;;;1999.90;999.90;;;;;;;;;;5056736;28;20486;-85
2023/11/29 01:17:02;;;;;;;1999.90;999.90;;;;;;;;;;5059035;28;20041;-85
2023/11/29 01:19:30;;;;;;;1999.90;999.90;;;;;;;;;;5061042;28;20050;-85
2023/11/29 01:21:57;;;;;;;1999.90;999.90;;;;;;;;;;5058010;28;20049;-85
2023/11/29 01:24:23;;;;;;;1999.90;999.90;;;;;;;;;;5060840;28;20072;-85
2023/11/29 01:26:50;;;;;;;1999.90;999.90;;;;;;;;;;5057279;28;20490;-85
2023/11/29 01:29:16;;;;;;;1999.90;999.90;;;;;;;;;;5061328;28;20049;-86
2023/11/29 01:31:42;;;;;;;1999.90;999.90;;;;;;;;;;5057995;28;20055;-85
2023/11/29 01:34:08;;;;;;;1999.90;999.90;;;;;;;;;;5058686;28;20052;-86
2023/11/29 01:36:42;;;;;;;1999.90;999.90;;;;;;;;;;5062803;28;20052;-83
2023/11/29 01:39:09;;;;;;;1999.90;999.90;;;;;;;;;;5059845;28;20140;-85
2023/11/29 01:41:35;;;;;;;1999.90;999.90;;;;;;;;;;5060078;28;20485;-84
2023/11/29 01:44:02;;;;;;;1999.90;999.90;;;;;;;;;;5060820;28;20509;-85
2023/11/29 01:46:29;;;;;;;1999.90;999.90;;;;;;;;;;5057360;28;20591;-85
2023/11/29 01:48:56;;;;;;;1999.90;999.90;;;;;;;;;;5060174;28;20408;-85
2023/11/29 01:51:22;;;;;;;1999.90;999.90;;;;;;;;;;5061836;28;20497;-85
2023/11/29 01:53:51;;;;;;;1999.90;999.90;;;;;;;;;;5060862;28;20048;-84
2023/11/29 01:56:19;;;;;;;1999.90;999.90;;;;;;;;;;5060488;28;20362;-85
2023/11/29 01:58:46;;;;;;;1999.90;999.90;;;;;;;;;;5062403;28;20052;-85
2023/11/29 02:01:13;;;;;;;1999.90;999.90;;;;;;;;;;5064814;28;20450;-85
2023/11/29 02:03:40;;;;;;;1999.90;999.90;;;;;;;;;;5060219;28;20044;-85
2023/11/29 02:06:07;;;;;;;1999.90;999.90;;;;;;;;;;5064692;28;20065;-85
2023/11/29 02:08:34;;;;;;;1999.90;999.90;;;;;;;;;;5061083;28;20052;-85
2023/11/29 02:11:02;;;;;;;1999.90;999.90;;;;;;;;;;5057983;28;20063;-84
2023/11/29 02:13:29;;;;;;;1999.90;999.90;;;;;;;;;;5062814;28;20044;-85
2023/11/29 02:15:55;;;;;;;1999.90;999.90;;;;;;;;;;5061017;28;20049;-85
2023/11/29 02:18:22;;;;;;;1999.90;999.90;;;;;;;;;;5060948;28;20057;-85
2023/11/29 02:20:48;;;;;;;1999.90;999.90;;;;;;;;;;5060684;28;20037;-86
2023/11/29 02:23:20;;;;;;;1999.90;999.90;;;;;;;;;;5063222;28;20501;-85
2023/11/29 02:25:48;;;;;;;1999.90;999.90;;;;;;;;;;5061058;28;20046;-84
2023/11/29 02:28:14;;;;;;;1999.90;999.90;;;;;;;;;;5062362;28;20053;-85
2023/11/29 02:30:41;;;;;;;1999.90;999.90;;;;;;;;;;5057127;28;20071;-85
2023/11/29 02:33:07;;;;;;;1999.90;999.90;;;;;;;;;;5058288;28;20481;-85
2023/11/29 02:35:34;;;;;;;1999.90;999.90;;;;;;;;;;5059202;28;20068;-85
2023/11/29 02:38:00;;;;;;;1999.90;999.90;;;;;;;;;;5059021;28;20047;-85
2023/11/29 02:40:27;;;;;;;1999.90;999.90;;;;;;;;;;5058455;28;20068;-85
2023/11/29 02:42:55;;;;;;;1999.90;999.90;;;;;;;;;;5062679;28;20052;-85
2023/11/29 02:45:21;;;;;;;1999.90;999.90;;;;;;;;;;5058856;28;20060;-85
2023/11/29 02:47:48;;;;;;;1999.90;999.90;;;;;;;;;;5063976;28;20055;-85
2023/11/29 02:50:14;;;;;;;1999.90;999.90;;;;;;;;;;5059479;28;20049;-86
2023/11/29 02:52:41;;;;;;;1999.90;999.90;;;;;;;;;;5058034;28;20073;-86
2023/11/29 02:55:08;;;;;;;1999.90;999.90;;;;;;;;;;5058204;28;20449;-85
2023/11/29 02:57:35;;;;;;;1999.90;999.90;;;;;;;;;;5061752;28;20044;-86
2023/11/29 03:00:03;;;;;;;1999.90;999.90;;;;;;;;;;5064094;28;20048;-85
2023/11/29 03:02:30;;;;;;;1999.90;999.90;;;;;;;;;;5061910;28;20505;-86
2023/11/29 03:04:56;;;;;;;1999.90;999.90;;;;;;;;;;5061143;28;20040;-85
2023/11/29 03:07:23;;;;;;;1999.90;999.90;;;;;;;;;;5062302;28;20043;-86
2023/11/29 03:09:49;;;;;;;1999.90;999.90;;;;;;;;;;5064914;28;20408;-86
2023/11/29 03:12:21;;;;;;;1999.90;999.90;;;;;;;;;;5065009;28;20136;-85
2023/11/29 03:14:47;;;;;;;1999.90;999.90;;;;;;;;;;5063148;28;20475;-85
2023/11/29 03:17:15;;;;;;;1999.90;999.90;;;;;;;;;;5062650;28;20467;-86
2023/11/29 03:19:42;;;;;;;1999.90;999.90;;;;;;;;;;5065467;28;20040;-86
2023/11/29 03:22:08;;;;;;;1999.90;999.90;;;;;;;;;;5064768;28;20044;-86
2023/11/29 03:24:35;;;;;;;1999.90;999.90;;;;;;;;;;5058982;28;20501;-86
2023/11/29 03:27:01;;;;;;;1999.90;999.90;;;;;;;;;;5058314;28;20045;-86
2023/11/29 03:29:28;;;;;;;1999.90;999.90;;;;;;;;;;5058339;28;20049;-86
2023/11/29 03:31:54;;;;;;;1999.90;999.90;;;;;;;;;;5056977;28;20051;-86
2023/11/29 03:34:23;;;;;;;1999.90;999.90;;;;;;;;;;5057820;28;20040;-85
2023/11/29 03:36:50;;;;;;;1999.90;999.90;;;;;;;;;;5056139;28;20050;-85
2023/11/29 03:39:16;;;;;;;1999.90;999.90;;;;;;;;;;5058358;28;20059;-86
2023/11/29 03:41:42;;;;;;;1999.90;999.90;;;;;;;;;;5055763;28;20053;-86
2023/11/29 03:44:08;;;;;;;1999.90;999.90;;;;;;;;;;5055994;28;20056;-85
2023/11/29 03:46:35;;;;;;;1999.90;999.90;;;;;;;;;;5057880;28;20041;-85
2023/11/29 03:49:01;;;;;;;1999.90;999.90;;;;;;;;;;5057568;28;20048;-87
2023/11/29 03:51:29;;;;;;;1999.90;999.90;;;;;;;;;;5058074;28;20048;-86
2023/11/29 03:53:56;;;;;;;1999.90;999.90;;;;;;;;;;5061816;28;20055;-85
2023/11/29 03:56:22;;;;;;;1999.90;999.90;;;;;;;;;;5057394;28;20081;-86
2023/11/29 03:58:49;;;;;;;1999.90;999.90;;;;;;;;;;5056633;28;20048;-86
2023/11/29 04:01:15;;;;;;;1999.90;999.90;;;;;;;;;;5054962;28;20477;-85
2023/11/29 04:03:42;;;;;;;1999.90;999.90;;;;;;;;;;5058789;28;20044;-86
2023/11/29 04:06:08;;;;;;;1999.90;999.90;;;;;;;;;;5057472;28;20049;-86
2023/11/29 04:08:37;;;;;;;1999.90;999.90;;;;;;;;;;5057125;28;20076;-85
2023/11/29 04:11:04;;;;;;;1999.90;999.90;;;;;;;;;;5058509;28;20136;-86
2023/11/29 04:13:30;;;;;;;1999.90;999.90;;;;;;;;;;5056449;28;20406;-85
2023/11/29 04:15:57;;;;;;;1999.90;999.90;;;;;;;;;;5057280;28;20065;-85
2023/11/29 04:18:25;;;;;;;1999.90;999.90;;;;;;;;;;5055308;28;20541;-86
2023/11/29 04:20:51;;;;;;;1999.90;999.90;;;;;;;;;;5059067;28;20044;-85
2023/11/29 04:23:18;;;;;;;1999.90;999.90;;;;;;;;;;5061436;28;20052;-85
2023/11/29 04:25:46;;;;;;;1999.90;999.90;;;;;;;;;;5052064;28;20405;-84
2023/11/29 04:28:12;;;;;;;1999.90;999.90;;;;;;;;;;5061638;28;20048;-85
2023/11/29 04:30:39;;;;;;;1999.90;999.90;;;;;;;;;;5059333;28;20424;-85
2023/11/29 04:33:05;;;;;;;1999.90;999.90;;;;;;;;;;5060522;28;20060;-85
2023/11/29 04:35:32;;;;;;;1999.90;999.90;;;;;;;;;;5064172;28;20049;-84
2023/11/29 04:37:58;;;;;;;1999.90;999.90;;;;;;;;;;5053900;28;20113;-85
2023/11/29 04:40:25;;;;;;;1999.90;999.90;;;;;;;;;;5063155;28;20418;-84
2023/11/29 04:42:53;;;;;;;1999.90;999.90;;;;;;;;;;5055966;28;20049;-84
2023/11/29 04:45:19;;;;;;;1999.90;999.90;;;;;;;;;;5057161;28;20049;-85
2023/11/29 04:47:46;;;;;;;1999.90;999.90;;;;;;;;;;5061448;28;20052;-84
2023/11/29 04:50:12;;;;;;;1999.90;999.90;;;;;;;;;;5057206;28;20321;-85
2023/11/29 04:52:39;;;;;;;1999.90;999.90;;;;;;;;;;5058469;28;20063;-84
2023/11/29 04:55:07;;;;;;;1999.90;999.90;;;;;;;;;;5063684;28;20056;-84
2023/11/29 04:57:33;;;;;;;1999.90;999.90;;;;;;;;;;5063524;28;20048;-84
2023/11/29 05:00:01;;;;;;;1999.90;999.90;;;;;;;;;;5063259;28;20051;-84
2023/11/29 05:02:27;;;;;;;1999.90;999.90;;;;;;;;;;5062017;28;20049;-86
2023/11/29 05:04:54;;;;;;;1999.90;999.90;;;;;;;;;;5061947;28;20047;-84
2023/11/29 05:07:21;;;;;;;1999.90;999.90;;;;;;;;;;5058728;28;20055;-85
2023/11/29 05:09:47;;;;;;;1999.90;999.90;;;;;;;;;;5060728;28;20050;-85
2023/11/29 05:12:14;;;;;;;1999.90;999.90;;;;;;;;;;5059975;28;20493;-84
2023/11/29 05:14:40;;;;;;;1999.90;999.90;;;;;;;;;;5063021;28;20060;-86
2023/11/29 05:17:08;;;;;;;1999.90;999.90;;;;;;;;;;5061668;28;20047;-86
2023/11/29 05:19:34;;;;;;;1999.90;999.90;;;;;;;;;;5059738;28;20051;-86
2023/11/29 05:22:01;;;;;;;1999.90;999.90;;;;;;;;;;5063085;28;20045;-86
2023/11/29 05:24:27;;;;;;;1999.90;999.90;;;;;;;;;;5064978;28;20049;-84
2023/11/29 05:26:54;;;;;;;1999.90;999.90;;;;;;;;;;5060227;28;20585;-84
2023/11/29 05:29:21;;;;;;;1999.90;999.90;;;;;;;;;;5060837;28;20154;-85
2023/11/29 05:31:47;;;;;;;1999.90;999.90;;;;;;;;;;5061813;28;20417;-85
2023/11/29 05:34:15;;;;;;;1999.90;999.90;;;;;;;;;;5062031;28;20136;-86
2023/11/29 05:36:41;;;;;;;1999.90;999.90;;;;;;;;;;5062262;28;20045;-86
2023/11/29 05:39:09;;;;;;;1999.90;999.90;;;;;;;;;;5061076;28;20357;-86
2023/11/29 05:41:35;;;;;;;1999.90;999.90;;;;;;;;;;5061406;28;20051;-86
2023/11/29 05:44:02;;;;;;;1999.90;999.90;;;;;;;;;;5057657;28;20045;-85
2023/11/29 05:46:29;;;;;;;1999.90;999.90;;;;;;;;;;5063026;28;20159;-85
2023/11/29 05:48:55;;;;;;;1999.90;999.90;;;;;;;;;;5063488;28;20095;-86
2023/11/29 05:51:23;;;;;;;1999.90;999.90;;;;;;;;;;5058175;28;20049;-86
2023/11/29 05:53:50;;;;;;;1999.90;999.90;;;;;;;;;;5056636;28;20041;-85
2023/11/29 05:56:16;;;;;;;1999.90;999.90;;;;;;;;;;5060197;28;20603;-86
2023/11/29 05:58:43;;;;;;;1999.90;999.90;;;;;;;;;;5058421;28;20049;-85
2023/11/29 06:01:10;;;;;;;1999.90;999.90;;;;;;;;;;5058945;28;20048;-86
2023/11/29 06:03:36;;;;;;;1999.90;999.90;;;;;;;;;;5057948;28;20059;-86
2023/11/29 06:06:04;;;;;;;1999.90;999.90;;;;;;;;;;5058235;28;20119;-86
2023/11/29 06:08:32;;;;;;;1999.90;999.90;;;;;;;;;;5060088;28;20056;-85
2023/11/29 06:10:58;;;;;;;1999.90;999.90;;;;;;;;;;5057963;28;20539;-86
2023/11/29 06:13:25;;;;;;;1999.90;999.90;;;;;;;;;;5059581;28;20060;-85
2023/11/29 06:15:51;;;;;;;1999.90;999.90;;;;;;;;;;5061326;28;20085;-85
2023/11/29 06:18:18;;;;;;;1999.90;999.90;;;;;;;;;;5062898;28;20045;-86
2023/11/29 06:20:45;;;;;;;1999.90;999.90;;;;;;;;;;5059706;28;20048;-85
2023/11/29 06:23:12;;;;;;;1999.90;999.90;;;;;;;;;;5061558;28;20669;-85
2023/11/29 06:25:39;;;;;;;1999.90;999.90;;;;;;;;;;5058343;28;20094;-86
2023/11/29 06:28:06;;;;;;;1999.90;999.90;;;;;;;;;;5063235;28;20407;-85
2023/11/29 06:30:32;;;;;;;1999.90;999.90;;;;;;;;;;5058898;28;20044;-85
2023/11/29 06:32:59;;;;;;;1999.90;999.90;;;;;;;;;;5061661;28;20045;-85
2023/11/29 06:35:25;;;;;;;1999.90;999.90;;;;;;;;;;5061474;28;20477;-85
2023/11/29 06:37:52;;;;;;;1999.90;999.90;;;;;;;;;;5058033;28;20055;-86
2023/11/29 06:40:19;;;;;;;1999.90;999.90;;;;;;;;;;5064104;28;20054;-85
2023/11/29 06:42:47;;;;;;;1999.90;999.90;;;;;;;;;;5057785;28;20473;-86
2023/11/29 06:45:17;;;;;;;1999.90;999.90;;;;;;;;;;5059573;28;20521;-85
2023/11/29 06:47:44;;;;;;;1999.90;999.90;;;;;;;;;;5060717;28;20049;-86
2023/11/29 06:50:11;;;;;;;1999.90;999.90;;;;;;;;;;5058471;28;20087;-86
2023/11/29 06:52:38;;;;;;;1999.90;999.90;;;;;;;;;;5059667;28;20052;-85
2023/11/29 06:55:05;;;;;;;1999.90;999.90;;;;;;;;;;5059436;28;20052;-84
2023/11/29 06:57:31;;;;;;;1999.90;999.90;;;;;;;;;;5061642;28;20051;-85
2023/11/29 06:59:59;;;;;;;1999.90;999.90;;;;;;;;;;5066575;28;20045;-86
2023/11/29 07:02:26;;;;;;;1999.90;999.90;;;;;;;;;;5062587;28;20040;-84
2023/11/29 07:04:52;;;;;;;1999.90;999.90;;;;;;;;;;5062643;28;20560;-86
2023/11/29 07:07:19;;;;;;;1999.90;999.90;;;;;;;;;;5063529;28;20044;-86
2023/11/29 07:09:46;;;;;;;1999.90;999.90;;;;;;;;;;5070282;28;20052;-86
2023/11/29 07:12:12;;;;;;;1999.90;999.90;;;;;;;;;;5064478;28;20048;-85
2023/11/29 07:14:39;;;;;;;1999.90;999.90;;;;;;;;;;5067092;28;20060;-85
2023/11/29 07:17:06;;;;;;;1999.90;999.90;;;;;;;;;;5063660;28;20049;-85
2023/11/29 07:19:34;;;;;;;1999.90;999.90;;;;;;;;;;5063605;28;20071;-87
2023/11/29 07:22:01;;;;;;;1999.90;999.90;;;;;;;;;;5065829;28;20049;-85
2023/11/29 07:24:27;;;;;;;1999.90;999.90;;;;;;;;;;5064391;28;20072;-86
2023/11/29 07:26:54;;;;;;;1999.90;999.90;;;;;;;;;;5060901;28;20071;-87
2023/11/29 07:29:21;;;;;;;1999.90;999.90;;;;;;;;;;5062525;28;20531;-88
2023/11/29 07:31:48;;;;;;;1999.90;999.90;;;;;;;;;;5067294;28;20057;-86
2023/11/29 07:34:16;;;;;;;1999.90;999.90;;;;;;;;;;5061661;28;20040;-87
2023/11/29 07:36:43;;;;;;;1999.90;999.90;;;;;;;;;;5064593;28;20037;-87
2023/11/29 07:39:10;;;;;;;1999.90;999.90;;;;;;;;;;5066185;28;20053;-88
2023/11/29 07:41:37;;;;;;;1999.90;999.90;;;;;;;;;;5063089;28;20045;-88
2023/11/29 07:44:03;;;;;;;1999.90;999.90;;;;;;;;;;5063607;28;20098;-88
2023/11/29 07:46:30;;;;;;;1999.90;999.90;;;;;;;;;;5065785;28;20099;-88
2023/11/29 07:48:56;;;;;;;1999.90;999.90;;;;;;;;;;5065487;28;20037;-88
2023/11/29 07:51:25;;;;;;;1999.90;999.90;;;;;;;;;;5062397;28;20055;-87
2023/11/29 07:53:52;;;;;;;1999.90;999.90;;;;;;;;;;5065269;28;20037;-89
2023/11/29 07:56:18;;;;;;;1999.90;999.90;;;;;;;;;;5062718;28;20052;-90
2023/11/29 07:58:46;;;;;;;1999.90;999.90;;;;;;;;;;5066216;28;20511;-87
2023/11/29 08:01:13;;;;;;;1999.90;999.90;;;;;;;;;;5066223;28;20094;-87
2023/11/29 08:03:39;;;;;;;1999.90;999.90;;;;;;;;;;5062740;28;20052;-89
2023/11/29 08:06:07;;;;;;;1999.90;999.90;;;;;;;;;;5059662;28;20049;-90
2023/11/29 08:08:35;;;;;;;1999.90;999.90;;;;;;;;;;5057982;28;20053;-87
2023/11/29 08:11:02;;;;;;;1999.90;999.90;;;;;;;;;;5060001;28;20045;-89
2023/11/29 08:13:29;;;;;;;1999.90;999.90;;;;;;;;;;5057068;28;20416;-89
2023/11/29 08:15:56;;;;;;;1999.90;999.90;;;;;;;;;;5058990;28;20053;-88
2023/11/29 08:18:22;;;;;;;1999.90;999.90;;;;;;;;;;5059444;28;20167;-88
2023/11/29 08:20:49;;;;;;;1999.90;999.90;;;;;;;;;;5058767;28;20051;-88
2023/11/29 08:23:16;;;;;;;1999.90;999.90;;;;;;;;;;5064113;28;20041;-87
2023/11/29 08:25:46;;;;;;;1999.90;999.90;;;;;;;;;;5060747;28;20053;-86
2023/11/29 08:28:12;;;;;;;1999.90;999.90;;;;;;;;;;5067841;28;20118;-89
2023/11/29 08:30:39;;;;;;;1999.90;999.90;;;;;;;;;;5067299;28;20511;-88
2023/11/29 08:33:06;;;;;;;1999.90;999.90;;;;;;;;;;5068414;28;20064;-88
2023/11/29 08:35:32;;;;;;;1999.90;999.90;;;;;;;;;;5068237;28;20088;-88
2023/11/29 08:37:59;;;;;;;1999.90;999.90;;;;;;;;;;5069583;28;20041;-88
2023/11/29 08:40:25;;;;;;;1999.90;999.90;;;;;;;;;;5073503;28;20048;-89
2023/11/29 08:42:53;;;;;;;1999.90;999.90;;;;;;;;;;5071525;28;20045;-89
2023/11/29 08:45:20;;;;;;;1999.90;999.90;;;;;;;;;;5069061;28;20048;-90
2023/11/29 08:47:47;;;;;;;1999.90;999.90;;;;;;;;;;5070100;28;20052;-88
2023/11/29 08:50:13;;;;;;;1999.90;999.90;;;;;;;;;;5067589;28;20049;-89
2023/11/29 08:52:42;;;;;;;1999.90;999.90;;;;;;;;;;5066552;28;20378;-87
2023/11/29 08:55:09;;;;;;;1999.90;999.90;;;;;;;;;;5070332;28;20253;-88
2023/11/29 08:57:37;;;;;;;1999.90;999.90;;;;;;;;;;5068283;28;20057;-86
2023/11/29 09:00:07;;;;;;;1999.90;999.90;;;;;;;;;;5071142;28;20056;-87
2023/11/29 09:02:33;;;;;;;1999.90;999.90;;;;;;;;;;5071516;28;20052;-89
2023/11/29 09:05:02;;;;;;;1999.90;999.90;;;;;;;;;;5068649;28;20123;-87
2023/11/29 09:07:29;;;;;;;1999.90;999.90;;;;;;;;;;5068312;28;20353;-87
2023/11/29 09:09:56;;;;;;;1999.90;999.90;;;;;;;;;;5070487;28;20079;-89
2023/11/29 09:12:25;;;;;;;1999.90;999.90;;;;;;;;;;5072043;28;20052;-87
2023/11/29 09:14:55;;;;;;;1999.90;999.90;;;;;;;;;;5065746;28;20060;-89
2023/11/29 09:17:22;;;;;;;1999.90;999.90;;;;;;;;;;5065597;28;20194;-89
2023/11/29 09:19:49;;;;;;;1999.90;999.90;;;;;;;;;;5069884;28;20055;-88
2023/11/29 09:22:17;;;;;;;1999.90;999.90;;;;;;;;;;5071314;28;20044;-88
2023/11/29 09:24:44;;;;;;;1999.90;999.90;;;;;;;;;;5071049;28;20037;-89
2023/11/29 09:27:11;;;;;;;1999.90;999.90;;;;;;;;;;5066482;28;20037;-91
2023/11/29 09:29:38;;;;;;;1999.90;999.90;;;;;;;;;;5067061;28;20052;-87
2023/11/29 09:32:05;;;;;;;1999.90;999.90;;;;;;;;;;5072154;28;20076;-88
2023/11/29 09:34:33;;;;;;;1999.90;999.90;;;;;;;;;;5068009;28;20049;-90
2023/11/29 09:37:00;;;;;;;1999.90;999.90;;;;;;;;;;5063378;28;20059;-90
2023/11/29 09:39:28;;;;;;;1999.90;999.90;;;;;;;;;;5066177;28;20044;-88
2023/11/29 09:41:56;;;;;;;1999.90;999.90;;;;;;;;;;5068214;28;20044;-90
2023/11/29 09:44:23;;;;;;;1999.90;999.90;;;;;;;;;;5069868;28;20045;-88
2023/11/29 09:46:50;;;;;;;1999.90;999.90;;;;;;;;;;5059855;28;20071;-87
2023/11/29 09:49:16;;;;;;;1999.90;999.90;;;;;;;;;;5062436;28;20045;-91
2023/11/29 09:51:44;;;;;;;1999.90;999.90;;;;;;;;;;5064932;28;20063;-91
2023/11/29 09:54:11;;;;;;;1999.90;999.90;;;;;;;;;;5063770;28;20055;-89
2023/11/29 09:56:37;;;;;;;1999.90;999.90;;;;;;;;;;5063147;28;20063;-90
2023/11/29 09:59:04;;;;;;;1999.90;999.90;;;;;;;;;;5059921;28;20049;-91
2023/11/29 10:01:35;;;;;;;1999.90;999.90;;;;;;;;;;5064208;28;20072;-93
2023/11/29 10:04:04;;;;;;;1999.90;999.90;;;;;;;;;;5062880;28;20045;-91
2023/11/29 10:06:31;;;;;;;1999.90;999.90;;;;;;;;;;5066690;28;20044;-90
2023/11/29 10:08:59;;;;;;;1999.90;999.90;;;;;;;;;;5073116;28;20557;-90
2023/11/29 10:11:29;;;;;;;1999.90;999.90;;;;;;;;;;5069661;28;20052;-90
2023/11/29 10:13:56;;;;;;;1999.90;999.90;;;;;;;;;;5066694;28;20040;-92
2023/11/29 10:16:23;;;;;;;1999.90;999.90;;;;;;;;;;5073459;28;20049;-88
2023/11/29 10:18:50;;;;;;;1999.90;999.90;;;;;;;;;;5074950;28;20454;-92
2023/11/29 10:21:17;;;;;;;1999.90;999.90;;;;;;;;;;5078282;28;20112;-91
2023/11/29 10:23:44;;;;;;;1999.90;999.90;;;;;;;;;;5079538;28;20045;-89
2023/11/29 10:26:13;;;;;;;1999.90;999.90;;;;;;;;;;5071752;28;20068;-89
2023/11/29 10:28:41;;;;;;;1999.90;999.90;;;;;;;;;;5072792;28;20083;-92
2023/11/29 10:31:08;;;;;;;1999.90;999.90;;;;;;;;;;5072835;28;20094;-95
2023/11/29 10:33:35;;;;;;;1999.90;999.90;;;;;;;;;;5065785;28;20042;-89
2023/11/29 10:36:03;;;;;;;1999.90;999.90;;;;;;;;;;5077064;28;20097;-88
2023/11/29 10:38:34;;;;;;;1999.90;999.90;;;;;;;;;;5075783;28;20048;-92
2023/11/29 10:41:01;;;;;;;1999.90;999.90;;;;;;;;;;5071849;28;20589;-91
2023/11/29 10:43:34;;;;;;;1999.90;999.90;;;;;;;;;;5079393;28;20055;-91
2023/11/29 10:46:07;;;;;;;1999.90;999.90;;;;;;;;;;5070226;28;20489;-91
2023/11/29 10:48:36;;;;;;;1999.90;999.90;;;;;;;;;;5075969;28;20460;-94
2023/11/29 10:51:03;;;;;;;1999.90;999.90;;;;;;;;;;5074054;28;20425;-89
2023/11/29 10:53:31;;;;;;;1999.90;999.90;;;;;;;;;;5076065;28;20068;-94
2023/11/29 10:55:59;;;;;;;1999.90;999.90;;;;;;;;;;5078499;28;20055;-92
2023/11/29 10:58:35;;;;;;;1999.90;999.90;;;;;;;;;;5073837;28;20246;-87
2023/11/29 11:01:07;;;;;;;1999.90;999.90;;;;;;;;;;5075688;28;20075;-90
2023/11/29 11:03:44;;;;;;;1999.90;999.90;;;;;;;;;;5062218;28;20048;-93
2023/11/29 11:06:37;;;;;;;1999.90;999.90;;;;;;;;;;5074752;28;20095;-91
2023/11/29 11:09:06;;;;;;;1999.90;999.90;;;;;;;;;;5070987;28;20044;-91
2023/11/29 11:11:43;;;;;;;1999.90;999.90;;;;;;;;;;5077499;28;20120;-88
2023/11/29 11:14:22;;;;;;;1999.90;999.90;;;;;;;;;;5071978;28;20068;-89
2023/11/29 11:16:56;;;;;;;1999.90;999.90;;;;;;;;;;5075855;28;20037;-91
2023/11/29 11:19:29;;;;;;;1999.90;999.90;;;;;;;;;;5068337;28;20039;-92
2023/11/29 11:21:58;;;;;;;1999.90;999.90;;;;;;;;;;5062125;28;20033;-87
2023/11/29 11:25:01;;;;;;;1999.90;999.90;;;;;;;;;;5074400;28;20044;-91
2023/11/29 11:27:32;;;;;;;1999.90;999.90;;;;;;;;;;5066818;28;20114;-91
2023/11/29 11:30:06;;;;;;;1999.90;999.90;;;;;;;;;;5065012;28;20072;-92
2023/11/29 11:32:49;;;;;;;1999.90;999.90;;;;;;;;;;5074681;28;20048;-88
2023/11/29 11:35:35;;;;;;;1999.90;999.90;;;;;;;;;;5077034;28;20043;-89
2023/11/29 11:38:06;;;;;;;1999.90;999.90;;;;;;;;;;5068293;28;20083;-93
2023/11/29 11:40:34;;;;;;;1999.90;999.90;;;;;;;;;;5070318;28;20060;-88
2023/11/29 11:43:01;;;;;;;1999.90;999.90;;;;;;;;;;5069035;28;20135;-91
2023/11/29 11:45:31;;;;;;;1999.90;999.90;;;;;;;;;;5067729;28;20041;-90
2023/11/29 11:47:58;;;;;;;1999.90;999.90;;;;;;;;;;5067389;28;20049;-90
2023/11/29 11:50:26;;;;;;;1999.90;999.90;;;;;;;;;;5068565;28;20098;-93
2023/11/29 11:52:53;;;;;;;1999.90;999.90;;;;;;;;;;5063059;28;20048;-90
2023/11/29 11:55:20;;;;;;;1999.90;999.90;;;;;;;;;;5062510;28;20052;-92
2023/11/29 11:57:48;;;;;;;1999.90;999.90;;;;;;;;;;5062923;28;20102;-93
2023/11/29 12:00:16;;;;;;;1999.90;999.90;;;;;;;;;;5063809;28;20106;-92
2023/11/29 12:02:44;;;;;;;1999.90;999.90;;;;;;;;;;5057935;28;20045;-94
2023/11/29 12:05:11;;;;;;;1999.90;999.90;;;;;;;;;;5069213;28;20048;-93
2023/11/29 12:07:40;;;;;;;1999.90;999.90;;;;;;;;;;5065434;28;20080;-93
2023/11/29 12:10:09;;;;;;;1999.90;999.90;;;;;;;;;;5067823;28;20044;-93
2023/11/29 12:12:36;;;;;;;1999.90;999.90;;;;;;;;;;5064404;28;20187;-90
2023/11/29 12:15:03;;;;;;;1999.90;999.90;;;;;;;;;;5059721;28;20067;-87
2023/11/29 12:17:33;;;;;;;1999.90;999.90;;;;;;;;;;5064385;28;20052;-94
2023/11/29 12:20:04;;;;;;;1999.90;999.90;;;;;;;;;;5066974;28;20563;-91
2023/11/29 12:22:30;;;;;;;1999.90;999.90;;;;;;;;;;5064039;28;20068;-92
2023/11/29 12:24:57;;;;;;;1999.90;999.90;;;;;;;;;;5062474;28;20054;-91
2023/11/29 12:27:25;;;;;;;1999.90;999.90;;;;;;;;;;5060613;28;20452;-91
2023/11/29 12:29:52;;;;;;;1999.90;999.90;;;;;;;;;;5060865;28;20056;-89
2023/11/29 12:32:19;;;;;;;1999.90;999.90;;;;;;;;;;5063259;28;20055;-89
2023/11/29 12:34:45;;;;;;;1999.90;999.90;;;;;;;;;;5060973;28;20068;-91
2023/11/29 12:37:14;;;;;;;1999.90;999.90;;;;;;;;;;5059568;28;20048;-88
2023/11/29 12:39:43;;;;;;;1999.90;999.90;;;;;;;;;;5062905;28;20098;-95
2023/11/29 12:42:09;;;;;;;1999.90;999.90;;;;;;;;;;5063667;28;20498;-90
2023/11/29 12:44:36;;;;;;;1999.90;999.90;;;;;;;;;;5062384;28;20048;-86
2023/11/29 12:47:03;;;;;;;1999.90;999.90;;;;;;;;;;5076914;28;20055;-88
2023/11/29 12:49:31;;;;;;;1999.90;999.90;;;;;;;;;;5080103;28;20059;-89
2023/11/29 12:51:58;;;;;;;1999.90;999.90;;;;;;;;;;5080643;28;20029;-86
2023/11/29 12:54:26;;;;;;;1999.90;999.90;;;;;;;;;;5081872;28;20048;-85
2023/11/29 12:56:52;;;;;;;1999.90;999.90;;;;;;;;;;5074562;28;20040;-90
2023/11/29 12:59:19;;;;;;;1999.90;999.90;;;;;;;;;;5065354;28;20051;-91
2023/11/29 13:01:46;;;;;;;1999.90;999.90;;;;;;;;;;5065760;28;20511;-92
2023/11/29 13:04:12;;;;;;;1999.90;999.90;;;;;;;;;;5059567;28;20063;-88
2023/11/29 13:06:39;;;;;;;1999.90;999.90;;;;;;;;;;5057144;28;20044;-90
2023/11/29 13:09:05;;;;;;;1999.90;999.90;;;;;;;;;;5061002;28;20049;-91
2023/11/29 13:11:33;;;;;;;1999.90;999.90;;;;;;;;;;5064697;28;20488;-89
2023/11/29 13:13:59;;;;;;;1999.90;999.90;;;;;;;;;;5068869;28;20036;-88
2023/11/29 13:16:26;;;;;;;1999.90;999.90;;;;;;;;;;5063364;28;20045;-89
2023/11/29 13:18:52;;;;;;;1999.90;999.90;;;;;;;;;;5061097;28;20568;-90
2023/11/29 13:21:19;;;;;;;1999.90;999.90;;;;;;;;;;5059269;28;20048;-88
2023/11/29 13:23:46;;;;;;;1999.90;999.90;;;;;;;;;;5057181;28;20049;-89
2023/11/29 13:26:13;;;;;;;1999.90;999.90;;;;;;;;;;5061334;28;20053;-90
2023/11/29 13:28:41;;;;;;;1999.90;999.90;;;;;;;;;;5061277;28;20049;-89
2023/11/29 13:31:08;;;;;;;1999.90;999.90;;;;;;;;;;5065249;28;20072;-90
2023/11/29 13:33:34;;;;;;;1999.90;999.90;;;;;;;;;;5061799;28;20056;-87
2023/11/29 13:36:01;;;;;;;1999.90;999.90;;;;;;;;;;5061916;28;20041;-90
2023/11/29 13:38:27;;;;;;;1999.90;999.90;;;;;;;;;;5059978;28;20041;-91
2023/11/29 13:40:54;;;;;;;1999.90;999.90;;;;;;;;;;5061601;28;20523;-88
2023/11/29 13:43:20;;;;;;;1999.90;999.90;;;;;;;;;;5060298;28;20048;-88